createdAt,value
2019-06-26T00:01:56.804Z,10.23
2019-06-26T00:04:25.311Z,11.07
2019-06-26T00:06:53.793Z,11.67
2019-06-26T00:09:22.331Z,9.63
2019-06-26T00:11:50.822Z,10.30
2019-06-26T00:14:19.303Z,10.23
2019-06-26T00:16:47.838Z,10.70
2019-06-26T00:19:17.994Z,11.47
2019-06-26T00:21:46.486Z,10.17
2019-06-26T00:24:14.968Z,10.60
2019-06-26T00:26:43.465Z,12.30
2019-06-26T00:29:12.023Z,12.30
2019-06-26T00:31:40.516Z,10.70
2019-06-26T00:34:09.042Z,11.63
2019-06-26T00:36:37.543Z,11.63
2019-06-26T00:39:07.248Z,11.90
2019-06-26T00:41:35.743Z,12.40
2019-06-26T00:44:04.791Z,12.77
2019-06-26T00:46:33.320Z,11.60
2019-06-26T00:49:01.806Z,13.10
2019-06-26T00:51:30.337Z,12.77
2019-06-26T00:53:59.197Z,12.33
2019-06-26T00:56:27.685Z,12.27
2019-06-26T00:58:56.202Z,13.30
2019-06-26T01:01:24.778Z,12.70
2019-06-26T01:03:54.907Z,14.37
2019-06-26T01:06:25.108Z,11.77
2019-06-26T01:08:53.666Z,13.53
2019-06-26T01:11:22.157Z,12.93
2019-06-26T01:13:58.180Z,13.27
2019-06-26T01:16:20.925Z,13.10
2019-06-26T01:18:49.415Z,12.97
2019-06-26T01:21:18.027Z,12.57
2019-06-26T01:23:46.586Z,13.27
2019-06-26T01:26:15.054Z,14.33
2019-06-26T01:28:43.563Z,12.87
2019-06-26T01:31:12.041Z,12.67
2019-06-26T01:33:40.600Z,12.57
2019-06-26T01:36:09.114Z,13.13
2019-06-26T01:38:37.605Z,13.90
2019-06-26T01:41:06.074Z,14.30
2019-06-26T01:43:34.601Z,13.10
2019-06-26T01:46:03.246Z,12.60
2019-06-26T01:48:31.714Z,13.73
2019-06-26T01:51:00.232Z,12.43
2019-06-26T01:53:28.709Z,13.07
2019-06-26T01:55:57.209Z,12.80
2019-06-26T01:58:25.747Z,13.37
2019-06-26T02:00:54.230Z,12.30
2019-06-26T02:03:22.824Z,13.50
2019-06-26T02:05:51.333Z,13.27
2019-06-26T02:08:19.803Z,13.43
2019-06-26T02:10:48.294Z,14.03
2019-06-26T02:13:16.813Z,13.57
2019-06-26T02:15:45.292Z,13.77
2019-06-26T02:18:33.268Z,14.10
2019-06-26T02:21:01.751Z,13.63
2019-06-26T02:23:30.232Z,12.60
2019-06-26T02:25:58.763Z,14.13
2019-06-26T02:28:27.234Z,14.17
2019-06-26T02:30:55.786Z,14.43
2019-06-26T02:33:24.400Z,13.63
2019-06-26T02:35:52.875Z,14.53
2019-06-26T02:38:21.348Z,13.87
2019-06-26T02:40:49.854Z,14.97
2019-06-26T02:43:18.402Z,13.47
2019-06-26T02:45:46.887Z,14.83
2019-06-26T02:48:15.737Z,11.63
2019-06-26T02:50:44.220Z,14.93
2019-06-26T02:53:12.702Z,15.53
2019-06-26T02:55:41.401Z,12.23
2019-06-26T02:58:09.886Z,15.10
2019-06-26T03:00:38.383Z,14.50
2019-06-26T03:03:06.903Z,14.37
2019-06-26T03:05:35.375Z,14.80
2019-06-26T03:08:03.863Z,15.73
2019-06-26T03:10:32.390Z,14.20
2019-06-26T03:13:00.873Z,13.90
2019-06-26T03:15:29.355Z,15.17
2019-06-26T03:17:57.882Z,14.63
2019-06-26T03:20:29.544Z,15.57
2019-06-26T03:22:58.028Z,10.90
2019-06-26T03:25:26.529Z,11.60
2019-06-26T03:27:55.010Z,13.30
2019-06-26T03:30:23.497Z,11.90
2019-06-26T03:32:52.202Z,13.80
2019-06-26T03:35:20.712Z,13.07
2019-06-26T03:37:49.220Z,15.00
2019-06-26T03:40:17.822Z,13.67
2019-06-26T03:42:46.307Z,13.77
2019-06-26T03:45:25.246Z,13.23
2019-06-26T03:47:45.182Z,14.90
2019-06-26T03:50:14.835Z,13.20
2019-06-26T03:52:43.414Z,14.10
2019-06-26T03:55:11.982Z,12.70
2019-06-26T03:57:40.468Z,12.10
2019-06-26T04:00:09.550Z,12.27
2019-06-26T04:02:38.029Z,13.30
2019-06-26T04:05:06.882Z,13.47
2019-06-26T04:07:35.443Z,11.83
2019-06-26T04:10:08.089Z,11.07
2019-06-26T04:12:36.571Z,11.97
2019-06-26T04:15:06.679Z,12.07
2019-06-26T04:17:35.167Z,11.50
2019-06-26T04:20:07.530Z,10.30
2019-06-26T04:22:36.050Z,11.57
2019-06-26T04:25:06.426Z,10.43
2019-06-26T04:27:34.901Z,11.33
2019-06-26T04:30:04.796Z,9.67
2019-06-26T04:32:33.289Z,10.23
2019-06-26T04:35:01.830Z,10.00
2019-06-26T04:37:30.295Z,9.97
2019-06-26T04:39:58.783Z,10.27
2019-06-26T04:42:27.253Z,9.20
2019-06-26T04:44:55.795Z,10.90
2019-06-26T04:47:24.333Z,10.67
2019-06-26T04:49:52.802Z,12.20
2019-06-26T04:52:22.357Z,12.70
2019-06-26T04:54:50.831Z,12.50
2019-06-26T04:57:19.400Z,12.43
2019-06-26T04:59:47.928Z,10.73
2019-06-26T05:02:16.404Z,11.43
2019-06-26T05:04:44.879Z,11.37
2019-06-26T05:07:13.392Z,12.50
2019-06-26T05:09:41.862Z,11.80
2019-06-26T05:12:10.344Z,12.87
2019-06-26T05:14:38.867Z,12.80
2019-06-26T05:17:07.481Z,12.37
2019-06-26T05:19:35.946Z,14.23
2019-06-26T05:22:04.564Z,13.53
2019-06-26T05:24:33.074Z,12.33
2019-06-26T05:27:01.600Z,11.67
2019-06-26T05:29:30.154Z,12.50
2019-06-26T05:31:58.621Z,12.00
2019-06-26T05:34:27.100Z,13.40
2019-06-26T05:36:55.633Z,12.80
2019-06-26T05:39:24.118Z,12.77
2019-06-26T05:41:52.610Z,14.00
2019-06-26T05:44:21.177Z,12.93
2019-06-26T05:46:49.671Z,13.33
2019-06-26T05:49:18.146Z,13.97
2019-06-26T05:51:46.753Z,13.50
2019-06-26T05:54:15.626Z,13.10
2019-06-26T05:56:45.410Z,12.77
2019-06-26T05:59:14.121Z,13.77
2019-06-26T06:01:42.603Z,13.10
2019-06-26T06:04:11.078Z,13.60
2019-06-26T06:06:42.173Z,13.43
2019-06-26T06:09:09.964Z,14.50
2019-06-26T06:11:38.457Z,13.20
2019-06-26T06:14:07.014Z,12.90
2019-06-26T06:16:46.726Z,12.40
2019-06-26T06:19:05.767Z,13.70
2019-06-26T06:21:34.271Z,16.07
2019-06-26T06:24:02.861Z,12.47
2019-06-26T06:26:31.365Z,13.23
2019-06-26T06:28:59.887Z,12.40
2019-06-26T06:31:28.515Z,12.63
2019-06-26T06:33:56.991Z,13.87
2019-06-26T06:36:25.530Z,12.63
2019-06-26T06:38:53.999Z,12.03
2019-06-26T06:41:22.492Z,12.13
2019-06-26T06:43:51.002Z,13.80
2019-06-26T06:46:19.495Z,12.03
2019-06-26T06:48:47.980Z,13.10
2019-06-26T06:51:16.498Z,12.73
2019-06-26T06:53:44.978Z,13.80
2019-06-26T06:56:15.038Z,15.27
2019-06-26T06:58:43.572Z,12.40
2019-06-26T07:01:12.049Z,13.80
2019-06-26T07:03:40.523Z,12.80
2019-06-26T07:06:09.107Z,14.07
2019-06-26T07:08:37.583Z,14.60
2019-06-26T07:11:06.067Z,13.00
2019-06-26T07:13:34.593Z,13.43
2019-06-26T07:16:03.072Z,14.10
2019-06-26T07:18:31.581Z,14.07
2019-06-26T07:21:00.246Z,13.97
2019-06-26T07:23:29.812Z,13.70
2019-06-26T07:25:58.284Z,13.27
2019-06-26T07:28:26.806Z,12.03
2019-06-26T07:30:55.290Z,13.17
2019-06-26T07:33:23.782Z,12.57
2019-06-26T07:35:52.309Z,13.40
2019-06-26T07:38:20.872Z,12.70
2019-06-26T07:40:49.368Z,12.73
2019-06-26T07:43:17.873Z,11.83
2019-06-26T07:45:46.351Z,12.10
2019-06-26T07:48:14.838Z,11.33
2019-06-26T07:50:43.362Z,9.67
2019-06-26T07:53:11.841Z,9.73
2019-06-26T07:55:40.668Z,10.63
2019-06-26T07:58:09.578Z,9.60
2019-06-26T08:00:38.051Z,11.00
2019-06-26T08:03:06.530Z,9.80
2019-06-26T08:05:35.101Z,8.83
2019-06-26T08:08:03.635Z,9.30
2019-06-26T08:10:32.180Z,8.70
2019-06-26T08:13:00.815Z,8.07
2019-06-26T08:15:29.369Z,8.60
2019-06-26T08:18:00.835Z,8.70
2019-06-26T08:20:28.237Z,8.40
2019-06-26T08:22:56.783Z,8.13
2019-06-26T08:25:25.370Z,6.03
2019-06-26T08:27:53.970Z,6.00
2019-06-26T08:30:22.585Z,5.30
2019-06-26T08:32:51.148Z,5.70
2019-06-26T08:35:19.745Z,5.43
2019-06-26T08:37:48.444Z,5.77
2019-06-26T08:40:18.822Z,5.30
2019-06-26T08:42:47.411Z,5.40
2019-06-26T08:45:17.935Z,5.70
2019-06-26T08:47:46.463Z,5.13
2019-06-26T08:50:15.424Z,5.87
2019-06-26T08:52:44.000Z,4.87
2019-06-26T08:55:12.682Z,5.33
2019-06-26T08:57:41.263Z,4.80
2019-06-26T09:00:10.985Z,5.27
2019-06-26T09:02:39.534Z,5.57
2019-06-26T09:05:08.578Z,5.03
2019-06-26T09:07:37.128Z,4.73
2019-06-26T09:10:07.623Z,4.50
2019-06-26T09:12:36.271Z,4.43
2019-06-26T09:15:06.670Z,5.00
2019-06-26T09:17:35.889Z,4.83
2019-06-26T09:20:05.894Z,4.50
2019-06-26T09:22:34.527Z,5.83
2019-06-26T09:25:20.110Z,4.67
2019-06-26T09:27:33.975Z,4.90
2019-06-26T09:30:02.540Z,4.67
2019-06-26T09:32:31.114Z,5.30
2019-06-26T09:34:59.744Z,5.20
2019-06-26T09:37:28.272Z,4.70
2019-06-26T09:39:56.898Z,5.33
2019-06-26T09:42:25.514Z,4.43
2019-06-26T09:44:54.061Z,5.10
2019-06-26T09:47:22.614Z,5.20
2019-06-26T09:49:51.195Z,4.43
2019-06-26T09:52:19.833Z,4.57
2019-06-26T09:54:48.392Z,4.47
2019-06-26T09:57:17.013Z,4.13
2019-06-26T09:59:45.571Z,4.13
2019-06-26T10:02:14.273Z,4.37
2019-06-26T10:04:42.868Z,4.57
2019-06-26T10:07:11.410Z,4.13
2019-06-26T10:09:39.964Z,4.50
2019-06-26T10:12:08.554Z,4.40
2019-06-26T10:14:47.406Z,4.40
2019-06-26T10:17:07.458Z,4.63
2019-06-26T10:19:36.066Z,4.80
2019-06-26T10:22:04.704Z,4.27
2019-06-26T10:24:33.360Z,5.10
2019-06-26T10:27:01.988Z,4.40
2019-06-26T10:29:30.563Z,4.37
2019-06-26T10:31:59.116Z,4.47
2019-06-26T10:34:27.697Z,5.17
2019-06-26T10:36:57.272Z,4.78
2019-06-26T10:39:25.827Z,4.47
2019-06-26T10:41:55.211Z,4.13
2019-06-26T10:44:23.911Z,4.50
2019-06-26T10:46:52.489Z,4.67
2019-06-26T10:49:26.829Z,4.40
2019-06-26T10:51:51.411Z,4.67
2019-06-26T10:54:19.977Z,5.20
2019-06-26T10:56:48.574Z,4.50
2019-06-26T10:59:17.137Z,4.37
2019-06-26T11:01:47.230Z,5.37
2019-06-26T11:04:15.968Z,4.67
2019-06-26T11:06:44.535Z,4.53
2019-06-26T11:09:13.216Z,4.80
2019-06-26T11:11:41.805Z,4.27
2019-06-26T11:14:10.368Z,5.10
2019-06-26T11:16:38.979Z,4.28
2019-06-26T11:19:07.621Z,4.62
2019-06-26T11:21:36.219Z,5.23
2019-06-26T11:24:04.836Z,5.00
2019-06-26T11:26:33.491Z,4.37
2019-06-26T11:29:02.102Z,4.70
2019-06-26T11:31:30.666Z,4.97
2019-06-26T11:34:00.959Z,5.12
2019-06-26T11:36:29.551Z,4.40
2019-06-26T11:38:58.133Z,4.57
2019-06-26T11:41:26.711Z,4.97
2019-06-26T11:43:55.259Z,4.70
2019-06-26T11:46:23.803Z,5.22
2019-06-26T11:48:52.402Z,5.10
2019-06-26T11:51:20.942Z,4.40
2019-06-26T11:53:49.494Z,4.83
2019-06-26T11:56:18.142Z,4.80
2019-06-26T11:58:46.733Z,5.00
2019-06-26T12:01:15.266Z,5.00
2019-06-26T12:03:43.846Z,4.77
2019-06-26T12:06:19.008Z,4.97
2019-06-26T12:08:43.045Z,4.85
2019-06-26T12:11:11.651Z,4.83
2019-06-26T12:13:40.199Z,4.83
2019-06-26T12:16:08.770Z,5.12
2019-06-26T12:18:37.342Z,5.40
2019-06-26T12:21:05.960Z,5.80
2019-06-26T12:23:34.442Z,5.87
2019-06-26T12:26:03.039Z,6.55
2019-06-26T12:28:31.577Z,6.35
2019-06-26T12:31:00.130Z,6.25
2019-06-26T12:33:28.742Z,6.87
2019-06-26T12:35:57.291Z,6.23
2019-06-26T12:38:25.857Z,6.22
2019-06-26T12:40:54.474Z,6.58
2019-06-26T12:43:23.468Z,6.53
2019-06-26T12:45:52.024Z,6.50
2019-06-26T12:48:20.628Z,5.90
2019-06-26T12:50:49.176Z,7.00
2019-06-26T12:53:17.728Z,6.83
2019-06-26T12:55:46.364Z,7.20
2019-06-26T12:58:19.678Z,6.95
2019-06-26T13:00:45.740Z,6.80
2019-06-26T13:03:14.410Z,7.50
2019-06-26T13:05:42.970Z,7.03
2019-06-26T13:08:11.840Z,7.93
2019-06-26T13:10:49.675Z,6.73
2019-06-26T13:13:10.715Z,6.63
2019-06-26T13:15:39.293Z,7.47
2019-06-26T13:18:09.386Z,6.87
2019-06-26T13:20:52.262Z,7.00
2019-06-26T13:23:08.254Z,7.40
2019-06-26T13:25:36.909Z,6.63
2019-06-26T13:28:05.529Z,6.93
2019-06-26T13:30:37.035Z,7.17
2019-06-26T13:33:05.763Z,6.87
2019-06-26T13:35:34.312Z,6.93
2019-06-26T13:38:02.872Z,7.23
2019-06-26T13:40:31.555Z,6.20
2019-06-26T13:43:00.129Z,6.40
2019-06-26T13:45:28.676Z,7.13
2019-06-26T13:47:59.597Z,6.30
2019-06-26T13:50:28.140Z,5.83
2019-06-26T13:52:56.687Z,5.30
2019-06-26T13:55:25.346Z,5.63
2019-06-26T13:57:54.089Z,5.53
2019-06-26T14:00:22.829Z,5.43
2019-06-26T14:02:52.953Z,5.83
2019-06-26T14:05:21.512Z,5.80
2019-06-26T14:07:50.069Z,5.33
2019-06-26T14:10:18.883Z,4.90
2019-06-26T14:12:47.432Z,4.87
2019-06-26T14:15:17.018Z,4.33
2019-06-26T14:17:46.290Z,4.47
2019-06-26T14:20:14.987Z,4.83
2019-06-26T14:22:43.563Z,5.10
2019-06-26T14:25:12.384Z,6.17
2019-06-26T14:27:40.944Z,6.17
2019-06-26T14:30:09.667Z,6.63
2019-06-26T14:32:39.172Z,5.83
2019-06-26T14:35:08.187Z,5.47
2019-06-26T14:37:36.808Z,5.60
2019-06-26T14:40:08.665Z,5.57
2019-06-26T14:42:37.209Z,5.87
2019-06-26T14:45:07.991Z,6.43
2019-06-26T14:47:36.598Z,5.83
2019-06-26T14:50:09.168Z,5.60
2019-06-26T14:52:37.714Z,5.80
2019-06-26T14:55:07.110Z,5.93
2019-06-26T14:57:35.888Z,5.10
2019-06-26T15:00:07.105Z,6.20
2019-06-26T15:02:35.751Z,5.30
2019-06-26T15:05:05.837Z,5.80
2019-06-26T15:07:34.467Z,5.63
2019-06-26T15:10:04.306Z,5.47
2019-06-26T15:12:33.148Z,5.87
2019-06-26T15:15:01.811Z,5.03
2019-06-26T15:17:30.320Z,5.37
2019-06-26T15:20:00.126Z,6.43
2019-06-26T15:22:28.818Z,5.73
2019-06-26T15:24:57.398Z,6.60
2019-06-26T15:27:25.948Z,6.37
2019-06-26T15:29:54.514Z,7.20
2019-06-26T15:32:23.108Z,7.30
2019-06-26T15:34:51.671Z,8.30
2019-06-26T15:37:20.299Z,7.70
2019-06-26T15:39:48.910Z,7.00
2019-06-26T15:42:17.471Z,6.50
2019-06-26T15:44:46.036Z,6.33
2019-06-26T15:47:14.856Z,6.70
2019-06-26T15:49:43.449Z,6.90
2019-06-26T15:52:15.374Z,7.20
2019-06-26T15:54:43.375Z,6.67
2019-06-26T15:57:11.898Z,5.93
2019-06-26T15:59:40.341Z,6.10
2019-06-26T16:02:08.936Z,6.23
2019-06-26T16:04:37.408Z,6.10
2019-06-26T16:07:05.879Z,5.73
2019-06-26T16:09:34.390Z,6.37
2019-06-26T16:12:02.881Z,6.27
2019-06-26T16:14:31.768Z,5.60
2019-06-26T16:17:20.367Z,5.40
2019-06-26T16:19:48.865Z,6.17
2019-06-26T16:22:31.044Z,5.60
2019-06-26T16:24:47.580Z,6.10
2019-06-26T16:27:16.060Z,5.40
2019-06-26T16:29:44.538Z,4.73
2019-06-26T16:32:13.051Z,5.17
2019-06-26T16:34:41.523Z,5.30
2019-06-26T16:37:09.998Z,5.13
2019-06-26T16:39:38.598Z,5.10
2019-06-26T16:42:07.148Z,4.40
2019-06-26T16:44:35.709Z,5.27
2019-06-26T16:47:04.361Z,4.77
2019-06-26T16:49:32.946Z,5.17
2019-06-26T16:52:01.509Z,4.63
2019-06-26T16:54:30.110Z,4.57
2019-06-26T16:56:58.677Z,4.43
2019-06-26T16:59:27.242Z,4.43
2019-06-26T17:01:55.852Z,5.80
2019-06-26T17:04:24.404Z,5.00
2019-06-26T17:06:52.964Z,4.30
2019-06-26T17:09:21.601Z,4.17
2019-06-26T17:11:52.810Z,4.80
2019-06-26T17:14:21.380Z,4.33
2019-06-26T17:16:51.247Z,5.10
2019-06-26T17:19:19.808Z,4.60
2019-06-26T17:21:48.371Z,3.90
2019-06-26T17:24:16.970Z,3.83
2019-06-26T17:26:45.527Z,4.07
2019-06-26T17:29:14.112Z,4.47
2019-06-26T17:31:42.724Z,4.30
2019-06-26T17:34:13.067Z,3.97
2019-06-26T17:36:41.595Z,4.40
2019-06-26T17:39:10.223Z,4.63
2019-06-26T17:41:38.806Z,4.07
2019-06-26T17:44:07.409Z,3.90
2019-06-26T17:46:35.997Z,3.47
2019-06-26T17:49:04.581Z,3.40
2019-06-26T17:51:33.130Z,4.47
2019-06-26T17:54:02.591Z,4.00
2019-06-26T17:56:31.115Z,3.13
2019-06-26T17:58:59.608Z,3.20
2019-06-26T18:01:28.705Z,3.00
2019-06-26T18:03:57.198Z,3.30
2019-06-26T18:06:25.739Z,3.20
2019-06-26T18:08:54.272Z,2.87
2019-06-26T18:11:24.290Z,2.80
2019-06-26T18:13:52.770Z,3.50
2019-06-26T18:16:21.321Z,3.00
2019-06-26T18:18:51.314Z,2.53
2019-06-26T18:21:19.941Z,2.93
2019-06-26T18:23:48.502Z,2.80
2019-06-26T18:26:16.981Z,2.40
2019-06-26T18:28:45.451Z,3.93
2019-06-26T18:31:13.949Z,3.30
2019-06-26T18:33:44.361Z,3.70
2019-06-26T18:36:12.639Z,3.93
2019-06-26T18:38:41.174Z,2.73
2019-06-26T18:41:09.724Z,3.10
2019-06-26T18:43:38.192Z,2.80
2019-06-26T18:46:07.689Z,2.93
2019-06-26T18:48:36.179Z,3.37
2019-06-26T18:51:04.648Z,2.73
2019-06-26T18:53:33.174Z,2.87
2019-06-26T18:56:01.694Z,3.20
2019-06-26T18:58:30.922Z,2.60
2019-06-26T19:00:59.559Z,3.67
2019-06-26T19:03:28.318Z,3.50
2019-06-26T19:06:11.657Z,3.80
2019-06-26T19:08:40.164Z,3.30
2019-06-26T19:11:08.637Z,3.40
2019-06-26T19:13:37.162Z,3.90
2019-06-26T19:16:05.601Z,3.63
2019-06-26T19:18:34.083Z,3.70
2019-06-26T19:21:03.144Z,3.17
2019-06-26T19:23:31.796Z,3.50
2019-06-26T19:26:00.278Z,3.80
2019-06-26T19:28:28.818Z,3.67
2019-06-26T19:30:57.297Z,3.50
2019-06-26T19:33:25.840Z,3.60
2019-06-26T19:35:54.354Z,3.47
2019-06-26T19:38:22.837Z,3.80
2019-06-26T19:40:51.313Z,3.63
2019-06-26T19:43:19.894Z,4.40
2019-06-26T19:45:48.369Z,3.33
2019-06-26T19:48:16.845Z,4.57
2019-06-26T19:50:45.364Z,3.90
2019-06-26T19:53:13.835Z,3.83
2019-06-26T19:55:42.340Z,5.30
2019-06-26T19:58:10.849Z,4.33
2019-06-26T20:00:39.329Z,3.93
2019-06-26T20:03:07.802Z,4.20
2019-06-26T20:05:36.318Z,4.50
2019-06-26T20:08:04.814Z,4.20
2019-06-26T20:10:33.292Z,4.50
2019-06-26T20:13:01.876Z,5.17
2019-06-26T20:15:30.359Z,6.13
2019-06-26T20:17:58.832Z,5.50
2019-06-26T20:20:27.342Z,6.07
2019-06-26T20:22:57.244Z,6.20
2019-06-26T20:25:25.723Z,6.57
2019-06-26T20:27:57.222Z,6.30
2019-06-26T20:30:27.620Z,6.83
2019-06-26T20:32:56.099Z,6.20
2019-06-26T20:35:24.601Z,6.60
2019-06-26T20:37:53.154Z,7.70
2019-06-26T20:40:21.699Z,7.00
2019-06-26T20:42:50.253Z,7.70
2019-06-26T20:45:18.868Z,7.30
2019-06-26T20:47:48.985Z,8.67
2019-06-26T20:50:17.487Z,8.33
2019-06-26T20:52:45.977Z,8.07
2019-06-26T20:55:14.525Z,7.93
2019-06-26T20:57:43.055Z,8.90
2019-06-26T21:00:11.942Z,8.40
2019-06-26T21:02:40.418Z,7.53
2019-06-26T21:05:09.051Z,8.30
2019-06-26T21:07:37.550Z,7.37
2019-06-26T21:10:06.273Z,7.77
2019-06-26T21:12:34.866Z,7.50
2019-06-26T21:15:03.905Z,7.20
2019-06-26T21:17:32.379Z,7.03
2019-06-26T21:20:00.908Z,7.10
2019-06-26T21:22:29.395Z,5.23
2019-06-26T21:24:58.395Z,5.60
2019-06-26T21:27:26.923Z,6.63
2019-06-26T21:29:55.415Z,5.27
2019-06-26T21:32:23.904Z,5.63
2019-06-26T21:34:52.505Z,5.43
2019-06-26T21:37:20.981Z,5.67
2019-06-26T21:39:49.464Z,6.10
2019-06-26T21:42:17.974Z,5.43
2019-06-26T21:44:46.453Z,5.47
2019-06-26T21:47:14.931Z,5.33
2019-06-26T21:49:43.434Z,4.57
2019-06-26T21:52:11.907Z,5.57
2019-06-26T21:54:40.396Z,4.30
2019-06-26T21:57:09.463Z,6.03
2019-06-26T21:59:37.975Z,5.10
2019-06-26T22:02:06.520Z,4.97
2019-06-26T22:04:35.035Z,5.20
2019-06-26T22:07:03.568Z,4.40
2019-06-26T22:09:32.069Z,5.00
2019-06-26T22:12:00.946Z,5.53
2019-06-26T22:14:29.569Z,4.07
2019-06-26T22:16:58.042Z,5.57
2019-06-26T22:19:26.636Z,4.87
2019-06-26T22:21:55.099Z,4.37
2019-06-26T22:24:23.573Z,4.27
2019-06-26T22:26:52.278Z,4.57
2019-06-26T22:29:20.756Z,4.43
2019-06-26T22:31:49.261Z,4.13
2019-06-26T22:34:17.809Z,5.13
2019-06-26T22:36:51.862Z,5.10
2019-06-26T22:39:16.461Z,4.67
2019-06-26T22:41:44.988Z,4.50
2019-06-26T22:44:13.477Z,5.07
2019-06-26T22:46:41.949Z,4.80
2019-06-26T22:49:10.460Z,4.70
2019-06-26T22:51:38.933Z,4.90
2019-06-26T22:54:07.414Z,4.40
2019-06-26T22:56:35.914Z,4.67
2019-06-26T22:59:04.493Z,4.87
2019-06-26T23:01:32.981Z,5.07
2019-06-26T23:04:01.499Z,5.20
2019-06-26T23:06:29.987Z,5.20
2019-06-26T23:08:58.458Z,4.30
2019-06-26T23:11:26.985Z,4.90
2019-06-26T23:13:55.472Z,5.37
2019-06-26T23:16:23.961Z,5.60
2019-06-26T23:18:52.491Z,6.30
2019-06-26T23:21:20.967Z,5.20
2019-06-26T23:23:49.437Z,4.93
2019-06-26T23:26:24.153Z,4.10
2019-06-26T23:28:48.472Z,4.63
2019-06-26T23:31:16.986Z,6.30
2019-06-26T23:33:45.487Z,4.40
2019-06-26T23:36:13.965Z,3.10
2019-06-26T23:38:42.440Z,4.10
2019-06-26T23:41:10.956Z,3.03
2019-06-26T23:43:39.424Z,3.60
2019-06-26T23:46:07.895Z,3.23
2019-06-26T23:48:36.497Z,4.00
2019-06-26T23:51:04.970Z,3.40
2019-06-26T23:53:33.463Z,3.10
2019-06-26T23:56:01.999Z,3.40
2019-06-26T23:58:30.475Z,3.00
